sensor_id;sensor_type;location;lat;lon;timestamp;pressure;altitude;pressure_sealevel;temperature;humidity
70217;BME280;57608;0.000;0.000;2022-10-04T00:01:29;97904.63;;;19.63;41.57
70217;BME280;57608;0.000;0.000;2022-10-04T00:04:06;97907.78;;;19.67;41.62
70217;BME280;57608;0.000;0.000;2022-10-04T00:06:34;97908.25;;;19.70;41.53
70217;BME280;57608;0.000;0.000;2022-10-04T00:09:10;97917.88;;;19.71;41.43
70217;BME280;57608;0.000;0.000;2022-10-04T00:11:42;97922.69;;;19.68;41.46
70217;BME280;57608;0.000;0.000;2022-10-04T00:14:13;97918.59;;;19.65;41.30
70217;BME280;57608;0.000;0.000;2022-10-04T00:16:41;97906.97;;;19.58;41.40
70217;BME280;57608;0.000;0.000;2022-10-04T00:24:25;97918.41;;;19.50;41.51
70217;BME280;57608;0.000;0.000;2022-10-04T00:29:43;97923.88;;;19.57;41.58
70217;BME280;57608;0.000;0.000;2022-10-04T00:34:47;97932.19;;;19.62;41.67
70217;BME280;57608;0.000;0.000;2022-10-04T00:37:17;97937.19;;;19.65;41.61
70217;BME280;57608;0.000;0.000;2022-10-04T00:39:45;97939.50;;;19.68;41.48
70217;BME280;57608;0.000;0.000;2022-10-04T00:44:56;97938.81;;;19.74;41.54
70217;BME280;57608;0.000;0.000;2022-10-04T00:47:43;97948.28;;;19.77;41.52
70217;BME280;57608;0.000;0.000;2022-10-04T00:50:40;97939.16;;;19.79;41.27
70217;BME280;57608;0.000;0.000;2022-10-04T00:53:39;97948.75;;;19.80;41.38
70217;BME280;57608;0.000;0.000;2022-10-04T00:56:43;97944.47;;;19.79;41.45
70217;BME280;57608;0.000;0.000;2022-10-04T00:59:26;97948.47;;;19.84;41.37
70217;BME280;57608;0.000;0.000;2022-10-04T01:02:02;97948.47;;;19.84;41.36
70217;BME280;57608;0.000;0.000;2022-10-04T01:04:35;97955.44;;;19.85;41.30
70217;BME280;57608;0.000;0.000;2022-10-04T01:07:03;97954.91;;;19.81;41.16
70217;BME280;57608;0.000;0.000;2022-10-04T01:09:37;97936.81;;;19.76;41.33
70217;BME280;57608;0.000;0.000;2022-10-04T01:12:13;97945.13;;;19.73;41.37
70217;BME280;57608;0.000;0.000;2022-10-04T01:17:10;97944.47;;;19.63;41.45
70217;BME280;57608;0.000;0.000;2022-10-04T01:19:38;97947.47;;;19.60;41.54
70217;BME280;57608;0.000;0.000;2022-10-04T01:22:32;97952.28;;;19.56;41.51
70217;BME280;57608;0.000;0.000;2022-10-04T01:24:59;97946.47;;;19.53;41.66
70217;BME280;57608;0.000;0.000;2022-10-04T01:30:04;97953.75;;;19.51;41.66
70217;BME280;57608;0.000;0.000;2022-10-04T01:32:31;97946.66;;;19.51;41.68
70217;BME280;57608;0.000;0.000;2022-10-04T01:34:57;97965.56;;;19.56;41.73
70217;BME280;57608;0.000;0.000;2022-10-04T01:37:23;97948.47;;;19.59;41.86
70217;BME280;57608;0.000;0.000;2022-10-04T01:39:49;97948.63;;;19.57;41.70
70217;BME280;57608;0.000;0.000;2022-10-04T01:42:19;97952.44;;;19.63;41.75
70217;BME280;57608;0.000;0.000;2022-10-04T01:45:06;97961.41;;;19.62;41.64
70217;BME280;57608;0.000;0.000;2022-10-04T01:47:55;97974.03;;;19.60;41.57
70217;BME280;57608;0.000;0.000;2022-10-04T01:50:33;97967.38;;;19.56;41.49
70217;BME280;57608;0.000;0.000;2022-10-04T01:53:19;97964.38;;;19.51;41.60
70217;BME280;57608;0.000;0.000;2022-10-04T01:55:50;97969.38;;;19.45;41.84
70217;BME280;57608;0.000;0.000;2022-10-04T01:58:21;97957.25;;;19.43;41.91
70217;BME280;57608;0.000;0.000;2022-10-04T02:00:53;97967.72;;;19.44;41.78
70217;BME280;57608;0.000;0.000;2022-10-04T02:03:27;97982.34;;;19.48;41.69
70217;BME280;57608;0.000;0.000;2022-10-04T02:05:58;97986.47;;;19.51;41.71
70217;BME280;57608;0.000;0.000;2022-10-04T02:08:28;97979.16;;;19.53;41.64
70217;BME280;57608;0.000;0.000;2022-10-04T02:10:55;97968.41;;;19.55;41.51
70217;BME280;57608;0.000;0.000;2022-10-04T02:13:22;97983.31;;;19.56;41.62
70217;BME280;57608;0.000;0.000;2022-10-04T02:15:52;97984.97;;;19.57;41.66
70217;BME280;57608;0.000;0.000;2022-10-04T02:18:20;97979.34;;;19.60;41.67
70217;BME280;57608;0.000;0.000;2022-10-04T02:20:49;97977.69;;;19.59;41.67
70217;BME280;57608;0.000;0.000;2022-10-04T02:23:17;97970.88;;;19.64;41.54
70217;BME280;57608;0.000;0.000;2022-10-04T02:25:43;98004.25;;;19.67;41.45
70217;BME280;57608;0.000;0.000;2022-10-04T02:28:09;97996.28;;;19.67;41.38
70217;BME280;57608;0.000;0.000;2022-10-04T02:30:37;97985.63;;;19.67;41.67
70217;BME280;57608;0.000;0.000;2022-10-04T02:33:04;97998.94;;;19.67;41.54
70217;BME280;57608;0.000;0.000;2022-10-04T02:35:36;97992.97;;;19.65;41.39
70217;BME280;57608;0.000;0.000;2022-10-04T02:40:45;97989.97;;;19.60;41.32
70217;BME280;57608;0.000;0.000;2022-10-04T02:43:17;98003.75;;;19.55;41.45
70217;BME280;57608;0.000;0.000;2022-10-04T02:45:48;97997.28;;;19.50;41.42
70217;BME280;57608;0.000;0.000;2022-10-04T02:50:55;97995.59;;;19.40;41.56
70217;BME280;57608;0.000;0.000;2022-10-04T02:53:25;97996.75;;;19.38;41.50
70217;BME280;57608;0.000;0.000;2022-10-04T02:55:52;97998.94;;;19.34;41.62
70217;BME280;57608;0.000;0.000;2022-10-04T02:58:22;98002.75;;;19.31;41.69
70217;BME280;57608;0.000;0.000;2022-10-04T03:00:51;97987.63;;;19.32;41.72
70217;BME280;57608;0.000;0.000;2022-10-04T03:08:19;98004.88;;;19.36;41.88
70217;BME280;57608;0.000;0.000;2022-10-04T03:10:45;97994.25;;;19.36;41.67
70217;BME280;57608;0.000;0.000;2022-10-04T03:13:12;98008.22;;;19.38;41.67
70217;BME280;57608;0.000;0.000;2022-10-04T03:15:38;98019.84;;;19.37;41.67
70217;BME280;57608;0.000;0.000;2022-10-04T03:18:04;98030.09;;;19.32;41.73
70217;BME280;57608;0.000;0.000;2022-10-04T03:20:30;98015.34;;;19.29;41.69
70217;BME280;57608;0.000;0.000;2022-10-04T03:22:56;98006.84;;;19.26;41.62
70217;BME280;57608;0.000;0.000;2022-10-04T03:25:30;98004.53;;;19.23;41.69
70217;BME280;57608;0.000;0.000;2022-10-04T03:28:01;98011.81;;;19.21;41.81
70217;BME280;57608;0.000;0.000;2022-10-04T03:30:28;98022.78;;;19.18;41.78
70217;BME280;57608;0.000;0.000;2022-10-04T03:32:54;98007.19;;;19.14;41.73
70217;BME280;57608;0.000;0.000;2022-10-04T03:35:29;98020.94;;;19.18;42.00
70217;BME280;57608;0.000;0.000;2022-10-04T03:37:57;98023.59;;;19.18;41.87
70217;BME280;57608;0.000;0.000;2022-10-04T03:40:26;98011.00;;;19.20;42.01
70217;BME280;57608;0.000;0.000;2022-10-04T03:42:53;98032.75;;;19.24;41.83
70217;BME280;57608;0.000;0.000;2022-10-04T03:45:20;98027.13;;;19.27;41.93
70217;BME280;57608;0.000;0.000;2022-10-04T03:47:48;98023.13;;;19.31;41.80
70217;BME280;57608;0.000;0.000;2022-10-04T03:50:24;98020.34;;;19.33;41.66
70217;BME280;57608;0.000;0.000;2022-10-04T03:52:59;98032.28;;;19.37;41.74
70217;BME280;57608;0.000;0.000;2022-10-04T03:55:33;98020.66;;;19.38;41.78
70217;BME280;57608;0.000;0.000;2022-10-04T03:57:59;98020.50;;;19.39;41.74
70217;BME280;57608;0.000;0.000;2022-10-04T04:00:25;98023.81;;;19.41;41.84
70217;BME280;57608;0.000;0.000;2022-10-04T04:03:03;98039.44;;;19.44;41.83
70217;BME280;57608;0.000;0.000;2022-10-04T04:10:53;98026.00;;;19.46;41.79
70217;BME280;57608;0.000;0.000;2022-10-04T04:14:16;98043.25;;;19.50;41.81
70217;BME280;57608;0.000;0.000;2022-10-04T04:16:23;98044.75;;;19.44;41.67
70217;BME280;57608;0.000;0.000;2022-10-04T04:18:54;98033.94;;;19.38;41.57
70217;BME280;57608;0.000;0.000;2022-10-04T04:21:24;98035.75;;;19.29;41.80
70217;BME280;57608;0.000;0.000;2022-10-04T04:24:00;98041.38;;;19.26;41.76
70217;BME280;57608;0.000;0.000;2022-10-04T04:26:45;98049.00;;;19.21;42.00
70217;BME280;57608;0.000;0.000;2022-10-04T04:29:46;98048.34;;;19.19;42.08
70217;BME280;57608;0.000;0.000;2022-10-04T04:32:20;98061.94;;;19.15;42.10
70217;BME280;57608;0.000;0.000;2022-10-04T04:35:18;98041.03;;;19.12;42.23
70217;BME280;57608;0.000;0.000;2022-10-04T04:38:05;98055.97;;;19.13;42.44
70217;BME280;57608;0.000;0.000;2022-10-04T04:40:30;98051.81;;;19.19;42.40
70217;BME280;57608;0.000;0.000;2022-10-04T04:42:58;98047.53;;;19.26;42.53
70217;BME280;57608;0.000;0.000;2022-10-04T04:45:27;98061.66;;;19.35;42.80
70217;BME280;57608;0.000;0.000;2022-10-04T04:47:55;98052.53;;;19.46;42.65
70217;BME280;57608;0.000;0.000;2022-10-04T04:50:36;98053.41;;;19.55;42.57
70217;BME280;57608;0.000;0.000;2022-10-04T04:53:20;98057.22;;;19.60;42.80
70217;BME280;57608;0.000;0.000;2022-10-04T04:55:50;98071.00;;;19.64;42.64
70217;BME280;57608;0.000;0.000;2022-10-04T04:58:23;98054.88;;;19.65;42.70
70217;BME280;57608;0.000;0.000;2022-10-04T05:00:58;98073.16;;;19.69;42.81
70217;BME280;57608;0.000;0.000;2022-10-04T05:03:24;98068.00;;;19.75;42.73
70217;BME280;57608;0.000;0.000;2022-10-04T05:05:50;98067.19;;;19.83;43.08
70217;BME280;57608;0.000;0.000;2022-10-04T05:08:22;98059.06;;;19.93;42.89
70217;BME280;57608;0.000;0.000;2022-10-04T05:10:50;98076.50;;;20.04;42.95
70217;BME280;57608;0.000;0.000;2022-10-04T05:13:20;98079.81;;;20.14;42.78
70217;BME280;57608;0.000;0.000;2022-10-04T05:15:48;98078.97;;;20.22;42.81
70217;BME280;57608;0.000;0.000;2022-10-04T05:18:31;98083.28;;;20.31;42.60
70217;BME280;57608;0.000;0.000;2022-10-04T05:21:06;98089.25;;;20.41;42.58
70217;BME280;57608;0.000;0.000;2022-10-04T05:23:33;98085.56;;;20.51;42.70
70217;BME280;57608;0.000;0.000;2022-10-04T05:26:00;98082.56;;;20.62;42.50
70217;BME280;57608;0.000;0.000;2022-10-04T05:28:28;98086.22;;;20.69;42.38
70217;BME280;57608;0.000;0.000;2022-10-04T05:33:50;98088.84;;;20.86;42.37
70217;BME280;57608;0.000;0.000;2022-10-04T05:41:51;98086.13;;;21.02;42.13
70217;BME280;57608;0.000;0.000;2022-10-04T05:46:55;98104.94;;;21.01;41.80
70217;BME280;57608;0.000;0.000;2022-10-04T05:49:22;98090.63;;;20.93;41.65
70217;BME280;57608;0.000;0.000;2022-10-04T05:51:56;98104.63;;;20.87;41.68
70217;BME280;57608;0.000;0.000;2022-10-04T05:54:26;98105.34;;;20.81;41.86
70217;BME280;57608;0.000;0.000;2022-10-04T05:57:25;98094.53;;;20.74;41.93
70217;BME280;57608;0.000;0.000;2022-10-04T06:00:13;98100.88;;;20.73;41.93
70217;BME280;57608;0.000;0.000;2022-10-04T06:06:00;98106.66;;;20.69;41.96
70217;BME280;57608;0.000;0.000;2022-10-04T06:11:42;98105.19;;;20.74;42.62
70217;BME280;57608;0.000;0.000;2022-10-04T06:14:47;98124.97;;;20.80;42.94
70217;BME280;57608;0.000;0.000;2022-10-04T06:17:27;98114.44;;;20.87;42.82
70217;BME280;57608;0.000;0.000;2022-10-04T06:22:24;98119.59;;;20.88;42.89
70217;BME280;57608;0.000;0.000;2022-10-04T06:25:05;98116.75;;;20.90;42.60
70217;BME280;57608;0.000;0.000;2022-10-04T06:30:16;98134.44;;;20.83;42.51
70217;BME280;57608;0.000;0.000;2022-10-04T06:38:26;98129.78;;;20.76;42.71
70217;BME280;57608;0.000;0.000;2022-10-04T06:46:18;98128.25;;;20.90;42.60
70217;BME280;57608;0.000;0.000;2022-10-04T06:55:01;98133.22;;;21.02;42.76
70217;BME280;57608;0.000;0.000;2022-10-04T07:00:23;98121.41;;;21.04;42.43
70217;BME280;57608;0.000;0.000;2022-10-04T07:05:43;98122.69;;;21.08;42.32
70217;BME280;57608;0.000;0.000;2022-10-04T07:08:20;98121.72;;;21.09;42.32
70217;BME280;57608;0.000;0.000;2022-10-04T07:10:58;98140.16;;;21.11;42.25
70217;BME280;57608;0.000;0.000;2022-10-04T07:13:33;98135.03;;;21.09;42.07
70217;BME280;57608;0.000;0.000;2022-10-04T07:16:21;98135.84;;;21.10;42.22
70217;BME280;57608;0.000;0.000;2022-10-04T07:21:21;98137.00;;;21.07;42.55
70217;BME280;57608;0.000;0.000;2022-10-04T07:23:59;98148.84;;;21.05;42.44
70217;BME280;57608;0.000;0.000;2022-10-04T07:26:44;98126.72;;;20.96;42.39
70217;BME280;57608;0.000;0.000;2022-10-04T07:29:27;98139.53;;;20.92;42.17
70217;BME280;57608;0.000;0.000;2022-10-04T07:32:08;98157.72;;;20.89;42.65
70217;BME280;57608;0.000;0.000;2022-10-04T07:34:48;98158.72;;;20.88;42.83
70217;BME280;57608;0.000;0.000;2022-10-04T07:37:16;98160.06;;;20.84;42.96
70217;BME280;57608;0.000;0.000;2022-10-04T09:59:53;98115.13;;;20.89;40.96
70217;BME280;57608;0.000;0.000;2022-10-04T10:10:54;98134.31;;;21.16;40.92
70217;BME280;57608;0.000;0.000;2022-10-04T10:49:13;98260.13;;;21.26;40.91
70217;BME280;57608;0.000;0.000;2022-10-04T11:07:59;98291.47;;;21.07;41.01
70217;BME280;57608;0.000;0.000;2022-10-04T11:10:53;98302.63;;;21.11;41.16
70217;BME280;57608;0.000;0.000;2022-10-04T11:24:52;98299.28;;;21.09;41.08
70217;BME280;57608;0.000;0.000;2022-10-04T12:00:16;98322.31;;;21.50;41.18
70217;BME280;57608;0.000;0.000;2022-10-04T12:03:03;98322.00;;;21.53;40.91
70217;BME280;57608;0.000;0.000;2022-10-04T12:11:46;98320.34;;;21.52;40.84
70217;BME280;57608;0.000;0.000;2022-10-04T12:14:57;98315.34;;;21.49;40.73
70217;BME280;57608;0.000;0.000;2022-10-04T12:20:40;98337.03;;;21.37;40.77
70217;BME280;57608;0.000;0.000;2022-10-04T12:31:56;98332.56;;;21.13;40.99
70217;BME280;57608;0.000;0.000;2022-10-04T12:34:35;98344.22;;;21.12;40.69
70217;BME280;57608;0.000;0.000;2022-10-04T12:40:06;98345.88;;;21.13;40.63
70217;BME280;57608;0.000;0.000;2022-10-04T12:43:01;98358.00;;;21.16;40.60
70217;BME280;57608;0.000;0.000;2022-10-04T12:45:37;98367.50;;;21.18;40.52
70217;BME280;57608;0.000;0.000;2022-10-04T12:48:23;98372.00;;;21.18;40.34
70217;BME280;57608;0.000;0.000;2022-10-04T13:04:52;98387.66;;;21.21;40.21
70217;BME280;57608;0.000;0.000;2022-10-04T13:13:34;98391.66;;;21.33;40.09
70217;BME280;57608;0.000;0.000;2022-10-04T13:16:36;98400.16;;;21.37;40.14
70217;BME280;57608;0.000;0.000;2022-10-04T13:19:21;98391.63;;;21.41;40.04
70217;BME280;57608;0.000;0.000;2022-10-04T13:27:45;98387.94;;;21.51;39.86
70217;BME280;57608;0.000;0.000;2022-10-04T13:33:04;98396.63;;;21.53;39.80
70217;BME280;57608;0.000;0.000;2022-10-04T13:38:38;98398.59;;;21.51;39.46
70217;BME280;57608;0.000;0.000;2022-10-04T13:46:30;98391.47;;;21.35;39.46
70217;BME280;57608;0.000;0.000;2022-10-04T13:58:13;98400.16;;;21.12;39.37
70217;BME280;57608;0.000;0.000;2022-10-04T14:07:23;98406.47;;;21.11;39.82
70217;BME280;57608;0.000;0.000;2022-10-04T14:34:44;98414.78;;;21.24;39.56
70217;BME280;57608;0.000;0.000;2022-10-04T14:56:03;98423.09;;;21.62;39.43
70217;BME280;57608;0.000;0.000;2022-10-04T15:01:26;98440.28;;;21.68;38.60
70217;BME280;57608;0.000;0.000;2022-10-04T15:06:59;98430.59;;;21.67;39.11
70217;BME280;57608;0.000;0.000;2022-10-04T15:12:42;98442.25;;;21.66;38.97
70217;BME280;57608;0.000;0.000;2022-10-04T15:18:00;98436.28;;;21.56;38.92
70217;BME280;57608;0.000;0.000;2022-10-04T15:20:53;98443.25;;;21.49;39.05
70217;BME280;57608;0.000;0.000;2022-10-04T15:31:17;98445.09;;;21.32;39.22
70217;BME280;57608;0.000;0.000;2022-10-04T15:42:22;98458.41;;;21.40;39.39
70217;BME280;57608;0.000;0.000;2022-10-04T15:45:00;98456.25;;;21.43;39.50
70217;BME280;57608;0.000;0.000;2022-10-04T15:50:25;98458.25;;;21.41;39.22
70217;BME280;57608;0.000;0.000;2022-10-04T15:53:15;98458.75;;;21.37;39.34
70217;BME280;57608;0.000;0.000;2022-10-04T15:58:29;98460.56;;;21.36;39.44
70217;BME280;57608;0.000;0.000;2022-10-04T16:07:27;98458.72;;;21.53;39.41
70217;BME280;57608;0.000;0.000;2022-10-04T16:10:17;98462.44;;;21.60;39.49
70217;BME280;57608;0.000;0.000;2022-10-04T16:15:19;98461.59;;;21.68;39.33
70217;BME280;57608;0.000;0.000;2022-10-04T16:21:02;98465.25;;;21.75;39.45
70217;BME280;57608;0.000;0.000;2022-10-04T16:34:07;98452.06;;;21.90;40.31
70217;BME280;57608;0.000;0.000;2022-10-04T16:36:44;98456.03;;;22.03;40.52
70217;BME280;57608;0.000;0.000;2022-10-04T16:39:12;98462.00;;;22.13;40.33
70217;BME280;57608;0.000;0.000;2022-10-04T16:42:14;98459.78;;;22.25;40.56
70217;BME280;57608;0.000;0.000;2022-10-04T16:44:52;98456.94;;;22.35;39.92
70217;BME280;57608;0.000;0.000;2022-10-04T16:47:32;98452.44;;;22.43;40.13
70217;BME280;57608;0.000;0.000;2022-10-04T16:50:00;98461.38;;;22.51;40.24
70217;BME280;57608;0.000;0.000;2022-10-04T17:07:47;98462.19;;;22.59;39.95
70217;BME280;57608;0.000;0.000;2022-10-04T17:19:57;98477.13;;;23.08;39.27
70217;BME280;57608;0.000;0.000;2022-10-04T17:25:21;98466.97;;;23.27;39.23
70217;BME280;57608;0.000;0.000;2022-10-04T17:27:55;98466.09;;;23.35;38.80
70217;BME280;57608;0.000;0.000;2022-10-04T17:30:24;98471.53;;;23.41;38.86
70217;BME280;57608;0.000;0.000;2022-10-04T17:33:01;98473.69;;;23.46;38.32
70217;BME280;57608;0.000;0.000;2022-10-04T17:35:45;98468.47;;;23.53;38.36
70217;BME280;57608;0.000;0.000;2022-10-04T17:43:34;98474.19;;;23.65;38.27
70217;BME280;57608;0.000;0.000;2022-10-04T17:46:19;98477.34;;;23.68;38.15
70217;BME280;57608;0.000;0.000;2022-10-04T17:48:54;98480.94;;;23.75;38.67
70217;BME280;57608;0.000;0.000;2022-10-04T17:51:46;98465.84;;;23.83;38.57
70217;BME280;57608;0.000;0.000;2022-10-04T17:57:25;98462.09;;;23.92;38.18
70217;BME280;57608;0.000;0.000;2022-10-04T18:00:15;98455.38;;;23.96;38.27
70217;BME280;57608;0.000;0.000;2022-10-04T18:06:00;98470.03;;;24.00;38.26
70217;BME280;57608;0.000;0.000;2022-10-04T18:08:40;98474.00;;;24.04;38.30
70217;BME280;57608;0.000;0.000;2022-10-04T18:11:41;98460.25;;;24.07;38.79
70217;BME280;57608;0.000;0.000;2022-10-04T18:17:09;98470.69;;;24.17;38.43
70217;BME280;57608;0.000;0.000;2022-10-04T18:19:39;98466.53;;;24.15;38.71
70217;BME280;57608;0.000;0.000;2022-10-04T18:22:20;98468.72;;;24.11;38.32
70217;BME280;57608;0.000;0.000;2022-10-04T18:24:47;98467.63;;;24.05;38.61
70217;BME280;57608;0.000;0.000;2022-10-04T18:29:57;98464.69;;;24.00;38.85
70217;BME280;57608;0.000;0.000;2022-10-04T18:34:55;98475.75;;;23.97;39.03
70217;BME280;57608;0.000;0.000;2022-10-04T18:40:04;98481.44;;;23.94;38.87
70217;BME280;57608;0.000;0.000;2022-10-04T18:42:35;98481.44;;;23.94;38.76
70217;BME280;57608;0.000;0.000;2022-10-04T18:45:18;98483.13;;;23.95;38.52
70217;BME280;57608;0.000;0.000;2022-10-04T18:47:46;98479.63;;;23.95;38.44
70217;BME280;57608;0.000;0.000;2022-10-04T18:55:58;98472.50;;;24.02;38.19
70217;BME280;57608;0.000;0.000;2022-10-04T18:58:56;98476.03;;;24.02;38.23
70217;BME280;57608;0.000;0.000;2022-10-04T19:02:11;98480.38;;;24.03;37.68
70217;BME280;57608;0.000;0.000;2022-10-04T19:04:54;98484.88;;;24.03;37.34
70217;BME280;57608;0.000;0.000;2022-10-04T19:07:53;98481.56;;;24.01;37.03
70217;BME280;57608;0.000;0.000;2022-10-04T19:16:11;98480.72;;;24.00;36.90
70217;BME280;57608;0.000;0.000;2022-10-04T19:18:50;98487.28;;;23.98;36.81
70217;BME280;57608;0.000;0.000;2022-10-04T19:21:36;98477.44;;;23.98;36.38
70217;BME280;57608;0.000;0.000;2022-10-04T19:27:00;98482.31;;;23.95;36.16
70217;BME280;57608;0.000;0.000;2022-10-04T19:30:10;98488.47;;;23.95;36.16
70217;BME280;57608;0.000;0.000;2022-10-04T19:43:13;98492.53;;;23.91;35.58
70217;BME280;57608;0.000;0.000;2022-10-04T19:48:27;98496.22;;;23.90;35.58
70217;BME280;57608;0.000;0.000;2022-10-04T19:51:05;98493.22;;;23.85;35.41
70217;BME280;57608;0.000;0.000;2022-10-04T19:53:43;98495.06;;;23.84;35.66
70217;BME280;57608;0.000;0.000;2022-10-04T19:56:22;98489.06;;;23.82;35.77
70217;BME280;57608;0.000;0.000;2022-10-04T19:59:14;98486.56;;;23.81;35.52
70217;BME280;57608;0.000;0.000;2022-10-04T20:01:41;98483.63;;;23.75;35.48
70217;BME280;57608;0.000;0.000;2022-10-04T20:04:12;98484.69;;;23.66;34.35
70217;BME280;57608;0.000;0.000;2022-10-04T20:07:06;98489.09;;;23.59;35.57
70217;BME280;57608;0.000;0.000;2022-10-04T20:12:01;98489.56;;;23.48;35.69
70217;BME280;57608;0.000;0.000;2022-10-04T20:17:00;98483.25;;;23.40;35.84
70217;BME280;57608;0.000;0.000;2022-10-04T20:21:52;98491.25;;;23.40;35.71
70217;BME280;57608;0.000;0.000;2022-10-04T20:24:48;98485.09;;;23.40;35.33
70217;BME280;57608;0.000;0.000;2022-10-04T20:30:10;98488.28;;;23.35;35.76
70217;BME280;57608;0.000;0.000;2022-10-04T20:35:05;98487.19;;;23.30;35.77
70217;BME280;57608;0.000;0.000;2022-10-04T20:45:42;98487.00;;;23.31;36.13
70217;BME280;57608;0.000;0.000;2022-10-04T20:48:16;98484.97;;;23.33;35.99
70217;BME280;57608;0.000;0.000;2022-10-04T20:50:42;98487.28;;;23.36;36.07
70217;BME280;57608;0.000;0.000;2022-10-04T20:53:27;98484.63;;;23.36;36.14
70217;BME280;57608;0.000;0.000;2022-10-04T20:58:37;98482.59;;;23.38;36.04
70217;BME280;57608;0.000;0.000;2022-10-04T21:01:22;98483.44;;;23.39;35.99
70217;BME280;57608;0.000;0.000;2022-10-04T21:07:08;98471.91;;;23.38;35.98
70217;BME280;57608;0.000;0.000;2022-10-04T21:09:37;98470.25;;;23.37;36.09
70217;BME280;57608;0.000;0.000;2022-10-04T21:12:05;98481.41;;;23.41;36.04
70217;BME280;57608;0.000;0.000;2022-10-04T21:14:35;98476.91;;;23.41;36.02
70217;BME280;57608;0.000;0.000;2022-10-04T21:17:57;98483.25;;;23.40;36.06
70217;BME280;57608;0.000;0.000;2022-10-04T21:19:47;98473.75;;;23.38;35.72
70217;BME280;57608;0.000;0.000;2022-10-04T21:24:52;98468.59;;;23.36;35.65
70217;BME280;57608;0.000;0.000;2022-10-04T21:29:55;98467.75;;;23.36;35.82
70217;BME280;57608;0.000;0.000;2022-10-04T21:32:21;98466.09;;;23.35;35.72
70217;BME280;57608;0.000;0.000;2022-10-04T21:34:47;98477.59;;;23.35;35.66
70217;BME280;57608;0.000;0.000;2022-10-04T21:37:12;98464.44;;;23.34;35.74
70217;BME280;57608;0.000;0.000;2022-10-04T21:39:38;98472.25;;;23.35;35.81
70217;BME280;57608;0.000;0.000;2022-10-04T21:42:03;98468.94;;;23.33;35.83
70217;BME280;57608;0.000;0.000;2022-10-04T21:44:29;98463.59;;;23.33;35.65
70217;BME280;57608;0.000;0.000;2022-10-04T21:46:54;98473.09;;;23.36;35.98
70217;BME280;57608;0.000;0.000;2022-10-04T21:49:20;98472.25;;;23.35;35.84
70217;BME280;57608;0.000;0.000;2022-10-04T21:51:45;98465.09;;;23.36;36.02
70217;BME280;57608;0.000;0.000;2022-10-04T21:54:11;98467.75;;;23.36;35.88
70217;BME280;57608;0.000;0.000;2022-10-04T21:56:36;98477.25;;;23.38;35.79
70217;BME280;57608;0.000;0.000;2022-10-04T21:59:02;98465.91;;;23.36;35.73
70217;BME280;57608;0.000;0.000;2022-10-04T22:01:27;98462.22;;;23.37;35.96
70217;BME280;57608;0.000;0.000;2022-10-04T22:03:53;98454.56;;;23.34;35.71
70217;BME280;57608;0.000;0.000;2022-10-04T22:06:18;98466.56;;;23.38;35.87
70217;BME280;57608;0.000;0.000;2022-10-04T22:08:44;98460.56;;;23.36;36.18
70217;BME280;57608;0.000;0.000;2022-10-04T22:11:10;98469.41;;;23.37;35.74
70217;BME280;57608;0.000;0.000;2022-10-04T22:13:36;98464.59;;;23.32;35.66
70217;BME280;57608;0.000;0.000;2022-10-04T22:16:02;98457.13;;;23.27;35.87
70217;BME280;57608;0.000;0.000;2022-10-04T22:18:28;98464.00;;;23.22;36.12
70217;BME280;57608;0.000;0.000;2022-10-04T22:20:54;98464.53;;;23.17;35.88
70217;BME280;57608;0.000;0.000;2022-10-04T22:23:21;98452.03;;;23.09;35.80
70217;BME280;57608;0.000;0.000;2022-10-04T22:25:47;98466.75;;;23.05;36.16
70217;BME280;57608;0.000;0.000;2022-10-04T22:28:27;98460.47;;;22.98;36.18
70217;BME280;57608;0.000;0.000;2022-10-04T22:30:53;98457.50;;;22.93;36.04
70217;BME280;57608;0.000;0.000;2022-10-04T22:33:34;98461.50;;;22.89;36.11
70217;BME280;57608;0.000;0.000;2022-10-04T22:39:10;98465.22;;;22.88;36.25
70217;BME280;57608;0.000;0.000;2022-10-04T22:41:40;98455.72;;;22.85;36.13
70217;BME280;57608;0.000;0.000;2022-10-04T22:44:19;98467.88;;;22.88;36.13
70217;BME280;57608;0.000;0.000;2022-10-04T22:46:49;98457.53;;;22.85;36.15
70217;BME280;57608;0.000;0.000;2022-10-04T22:49:18;98462.56;;;22.80;36.22
70217;BME280;57608;0.000;0.000;2022-10-04T22:51:47;98462.13;;;22.76;36.21
70217;BME280;57608;0.000;0.000;2022-10-04T22:54:16;98462.63;;;22.71;36.11
70217;BME280;57608;0.000;0.000;2022-10-04T22:56:42;98456.31;;;22.64;36.24
70217;BME280;57608;0.000;0.000;2022-10-04T22:59:09;98462.00;;;22.61;36.22
70217;BME280;57608;0.000;0.000;2022-10-04T23:01:35;98462.38;;;22.58;36.29
70217;BME280;57608;0.000;0.000;2022-10-04T23:04:01;98462.38;;;22.58;36.41
70217;BME280;57608;0.000;0.000;2022-10-04T23:06:26;98469.34;;;22.59;36.56
70217;BME280;57608;0.000;0.000;2022-10-04T23:08:51;98466.34;;;22.62;36.47
70217;BME280;57608;0.000;0.000;2022-10-04T23:11:17;98466.66;;;22.67;36.46
70217;BME280;57608;0.000;0.000;2022-10-04T23:13:43;98466.97;;;22.72;36.44
70217;BME280;57608;0.000;0.000;2022-10-04T23:16:15;98462.94;;;22.76;36.51
70217;BME280;57608;0.000;0.000;2022-10-04T23:18:42;98465.25;;;22.80;36.54
70217;BME280;57608;0.000;0.000;2022-10-04T23:21:17;98463.91;;;22.84;36.55
70217;BME280;57608;0.000;0.000;2022-10-04T23:23:44;98460.88;;;22.87;36.38
70217;BME280;57608;0.000;0.000;2022-10-04T23:26:20;98449.81;;;22.90;36.50
70217;BME280;57608;0.000;0.000;2022-10-04T23:28:46;98455.84;;;22.92;36.68
70217;BME280;57608;0.000;0.000;2022-10-04T23:31:21;98451.97;;;22.94;36.59
70217;BME280;57608;0.000;0.000;2022-10-04T23:33:47;98456.13;;;22.97;36.50
70217;BME280;57608;0.000;0.000;2022-10-04T23:36:13;98456.78;;;22.99;36.45
70217;BME280;57608;0.000;0.000;2022-10-04T23:38:45;98459.13;;;23.02;36.52
70217;BME280;57608;0.000;0.000;2022-10-04T23:41:12;98456.44;;;23.02;36.53
70217;BME280;57608;0.000;0.000;2022-10-04T23:43:37;98459.75;;;23.04;36.35
70217;BME280;57608;0.000;0.000;2022-10-04T23:46:14;98454.41;;;23.04;36.60
70217;BME280;57608;0.000;0.000;2022-10-04T23:48:41;98455.44;;;23.03;36.27
70217;BME280;57608;0.000;0.000;2022-10-04T23:51:10;98461.41;;;23.05;36.19
70217;BME280;57608;0.000;0.000;2022-10-04T23:53:36;98462.25;;;23.06;36.46
70217;BME280;57608;0.000;0.000;2022-10-04T23:56:07;98451.59;;;23.06;36.36
70217;BME280;57608;0.000;0.000;2022-10-04T23:58:37;98448.25;;;23.04;36.24
